Duke Field,(Eglin Af Aux Nr 3) Airport
KEGI : now visible

Airfield :











YOU CAN JOIN US ON...

 
LOGIN :

Register | Disclaimer

   EN    FR    IT 

 









Legend :    VFR   Marginal VFR   IFR   Intensive IFR   Very Intensive IFR
Visi :
Ceiling :
>= 8 km
>= 3000ft
5 to 8 km
1000 to 3000 ft
1500m to 5 km
500 to 1000 ft
800 to 1500m
200 to 500 ft
< 800m
< 200 ft
Symbols :   Thunderstorms  Fog  Heavy snow  Heavy precipitations  Wind > 20 kt






- Airport Elevation : 191 ft


KEGI - Duke Field,(Eglin Af Aux Nr 3)

CURRENT METAR :
  • 031328Z AUTO 35004KT 10SM OVC002 23/23 A2996 RMK AO2 SLP145 $

EXPIRED METARs :
  • 031302Z AUTO 33004KT 10SM OVC001 23/22 A2995 RMK AO2 SLP141 $
  • 031156Z AUTO 36003KT 10SM OVC002 23/22 A2993 RMK AO2 LTG DSNT S RAB44E50RAB50E51 SLP135 P0000 60000 70109 T02270220 10228 20223 51004 $
  • 031144Z AUTO 36003KT 10SM -RA OVC002 23/22 A2993 RMK AO2 RAB44 SLP135 $
  • 031120Z AUTO 36003KT 10SM OVC002 23/22 A2993 RMK AO2 SLP135 $
  • 031056Z AUTO 01004KT 10SM OVC001 23/22 A2993 RMK AO2 SLP135 T02250218 $

TAF TAF KEGI
Valid from the 03 at 09:00 until the 04 at 15:00 UTC


030900Z 0309/0415 34006KT 8000 BR SCT010 BKN120 QNH2990INS
TEMPO 0309/0313 0800 FG OVC002
BECMG 0313/0314 32009KT 9999 VCSH SCT020 BKN150 QNH2990INS
BECMG 0316/0317 31010G15KT 9999 -SHRA VCTS BKN025CB BKN150 QNH2989INS
TEMPO 0320/0402 27012G25KT 4800 -TSRA BKN030CB
BECMG 0402/0403 32009KT 9999 NSW BKN035 BKN150 QNH2998INS
BECMG 0408/0409 33006KT 8000 BR SCT010 BKN100 QNH2996INS
TEMPO 0410/0413 0800 FG OVC002 TX32/0321Z TN22/0311Z LAST NO AMDS AFT 0309 NEXT 0313
KZJX FIR / North America



MET'MAP, your aeronautical weather chart ! - Copyright ORBIFLY December 2007 - Disclaimer

ORBIFLY MET'MAP TEAM :

Programming & Development : Alexandra Zaïnal
Concept & original design : Baudouin d'Aumeries
Assistance for programming : Marc-Olivier Méhu
Technical & hardware support : Manuel Goepfert

Contact : metmap@orbifly.com




SOURCES & CREDITS :

   NOAA       Earth
Advisory